Date,TemperatureHighF,TemperatureAvgF,TemperatureLowF,DewpointHighF,DewpointAvgF,DewpointLowF,HumidityHigh,HumidityAvg,HumidityLow,PressureMaxIn,PressureMinIn,WindSpeedMaxMPH,WindSpeedAvgMPH,GustSpeedMaxMPH,PrecipitationSumIn
2013-2-9,52,49,41,36,35,33,73,59,54,29.92,29.89,7,2,11,0.21
2013-2-10,49,37,32,44,29,20,99,75,59,29.86,29.40,23,10,37,0.19
2013-2-11,39,32,24,24,20,16,73,60,51,30.24,29.85,14,6,36,0.25
2013-2-12,51,39,21,27,21,17,87,51,28,30.24,30.00,12,2,19,0.25
2013-2-13,58,44,23,30,25,16,81,51,27,30.01,29.83,11,3,20,0.25
2013-2-14,46,39,26,31,26,8,85,61,34,30.34,29.88,11,6,24,0.00
2013-2-15,34,25,17,22,15,5,84,67,32,30.44,30.35,9,2,13,0.00
2013-2-16,33,27,9,22,16,2,81,63,51,30.42,30.16,4,2,9,0.02
2013-2-17,57,39,25,33,25,16,72,59,37,30.11,29.68,6,2,12,0.00
2013-2-18,45,30,22,32,19,9,88,63,46,30.15,29.65,20,9,26,0.01
2013-2-19,30,18,10,10,-4,-12,59,39,19,30.46,30.15,20,7,26,0.00
2013-2-20,27,17,5,3,-4,-9,53,40,25,30.48,30.30,11,4,14,0.00
2013-2-21,26,23,22,19,12,3,86,66,41,30.34,29.95,14,6,21,0.00
2013-2-22,27,21,11,19,11,3,85,64,52,30.13,29.95,11,5,17,0.00
2013-2-23,43,24,5,24,11,-3,75,60,47,30.12,29.97,5,2,9,0.01
2013-2-24,52,36,18,28,24,12,84,64,33,30.17,30.00,7,2,11,0.00
2013-2-25,38,32,28,27,24,21,81,73,59,30.19,30.05,11,4,14,0.00
2013-2-26,33,30,27,28,25,23,87,81,75,30.01,29.88,11,5,14,0.00
2013-2-27,40,32,26,25,22,17,79,67,47,30.17,29.98,16,8,25,0.00
2013-2-28,34,30,27,23,20,16,74,67,60,30.32,30.18,12,6,18,0.00